Boaz, AL (35956)

4:01 PM CDT on April 23, 2017 (GMT -0500)
Sardis City | | Change Station

Elev 1056 ft 34.17 °N, 86.11 °W | Updated 3 minutes ago

Overcast
Overcast
58.7 °F
Feels Like 58.7 °F
N
4.0
Wind Variable Wind from NW
Gusts 9.0 mph

Today
High -- | Low -- °F
--% Chance of Precip.
Yesterday
High -- | Low -- °F
Precip. -- in
Pressure 29.78 in
Visibility 10.0 miles
Clouds Scattered Clouds 1300 ft
Overcast 2300 ft
Dew Point 55 °F
Humidity 86%
Rainfall 1.11 in
Snow Depth Not available.
6:03 AM 7:22 PM
Waning Crescent, 10% visible
METAR K8A0 232035Z AUTO 30009KT 269V329 10SM SCT013 OVC023 15/13 A2978 RMK AO2
Pressure 29.78 in
Visibility 10.0 miles
Clouds Scattered Clouds 1300 ft
Overcast 2300 ft
Dew Point 55 °F
Humidity 86%
Rainfall 1.11 in
Snow Depth Not available.
6:03 AM 7:22 PM
Waning Crescent, 10% visible
METAR K8A0 232035Z AUTO 30009KT 269V329 10SM SCT013 OVC023 15/13 A2978 RMK AO2

Get Severe Weather Alerts

Thanks for signing up!

Be on the lookout for a verification email in your inbox.

You'll start receiving the daily forecast at 8 AM.

×

10-Day Weather Forecast

Almanac

Astronomy

Apr. 23, 2017 Rise Set
Actual Time
Civil Twilight
Nautical Twilight
Astronomical Twilight
Moon
Length of Visible Light
Length of Day
Tomorrow will be .
, % of the Moon is Illuminated

Today's Extremes

State Highs State Lows

Community

WunderPhotos

WunderBlog® & News

Nearby

Air Quality

  Air Quality AQ Index Pollutant
Not available.

Snow Depth

Station Depth Elevation

Earthquake Activity

City Distance Mag. Time & Date
Minimum magnitude displayed is 2.5.

Coastal Water Temperatures

Place Temperature

Stations

Nearby Weather Stations

Station Location Temp. Windchill Dew Point Humidity Wind Precip. Elev Updated Type
                   

Watches & Warnings

There are currently no watches in effect.